Lesley Pg — MXUG5 — position and weather

sailwx.info

Track history (hours):
 
Tides and Currents Weather Stations Pressure Air Temp Water Temp Dewpoint Dewpoint Depression Visibility Wind Speed Wind Dir Waves Ship Positions

Lesley Pg

Last reported at 2014-Jul-14 23:30 UTC. Time now 2014-Jul-22 07:23 UTC.
Position N 16°24' W 062°15'.

Length 102 m; draft 5.6 m.

Type: Tanker. MMSI: 234910000.

Date/timePositionNaut miles runAvg speedWind from/ knotsBaromVisibWave heightAir tempDewpointWater temp
2014-Jul-14 23:30N 16°24' W 062°15'1010.1
2014-Jul-14 22:33N 16°33' W 062°19'10 9.8
2014-Jul-14 21:32N 16°41' W 062°24'74 9.3
2014-Jul-14 13:32N 17°45' W 063°04'10 9.9
2014-Jul-14 12:31N 17°55' W 063°05'6 2.8
2014-Jul-14 10:20N 18°01' W 063°05'0 0.0
2014-Jul-14 09:22N 18°01' W 063°05'0 0.0
2014-Jul-14 08:32N 18°01' W 063°05'0 0.0
2014-Jul-14 07:16N 18°01' W 063°05'0 0.0
2014-Jul-14 06:28N 18°01' W 063°05'0 0.0
2014-Jul-14 04:32N 18°01' W 063°05'0 0.0
2014-Jul-14 03:18N 18°01' W 063°05'0 0.0
2014-Jul-14 02:25N 18°01' W 063°05'0 0.0
2014-Jul-14 01:14N 18°01' W 063°05'0 0.0
2014-Jul-14 00:22N 18°01' W 063°05'0 0.0
2014-Jul-13 23:30N 18°01' W 063°05'0 0.0
2014-Jul-13 22:20N 18°01' W 063°05'0 0.0
2014-Jul-13 21:29N 18°01' W 063°05'0 0.0
2014-Jul-13 20:33N 18°01' W 063°05'0 0.0
2014-Jul-13 19:27N 18°01' W 063°05'0 0.0
2014-Jul-13 18:30N 18°01' W 063°05'0 0.0
2014-Jul-13 17:29N 18°01' W 063°05'0 0.0
2014-Jul-13 16:31N 18°01' W 063°05'0 0.0
2014-Jul-13 15:32N 18°01' W 063°05'0 0.0
2014-Jul-13 14:22N 18°01' W 063°05'0 0.0
2014-Jul-13 13:26N 18°01' W 063°05'0 0.0
2014-Jul-13 12:27N 18°01' W 063°05'0 0.0
2014-Jul-13 11:22N 18°01' W 063°05'0 0.1
2014-Jul-13 10:30N 18°01' W 063°05'  
Track history (hours):
 
Tides and Currents Weather Stations Pressure Air Temp Water Temp Dewpoint Dewpoint Depression Visibility Wind Speed Wind Dir Waves Ship Positions

Lesley Pg

Last reported at 2014-Jul-14 23:30 UTC. Time now 2014-Jul-22 07:23 UTC.
Position N 16°24' W 062°15'.

Length 102 m; draft 5.6 m.

Type: Tanker. MMSI: 234910000.

Date/timePositionNaut miles runAvg speedWind from/ knotsBaromVisibWave heightAir tempDewpointWater temp
2014-Jul-14 23:30N 16°24' W 062°15'1010.1
2014-Jul-14 22:33N 16°33' W 062°19'10 9.8
2014-Jul-14 21:32N 16°41' W 062°24'74 9.3
2014-Jul-14 13:32N 17°45' W 063°04'10 9.9
2014-Jul-14 12:31N 17°55' W 063°05'6 2.8
2014-Jul-14 10:20N 18°01' W 063°05'0 0.0
2014-Jul-14 09:22N 18°01' W 063°05'0 0.0
2014-Jul-14 08:32N 18°01' W 063°05'0 0.0
2014-Jul-14 07:16N 18°01' W 063°05'0 0.0
2014-Jul-14 06:28N 18°01' W 063°05'0 0.0
2014-Jul-14 04:32N 18°01' W 063°05'0 0.0
2014-Jul-14 03:18N 18°01' W 063°05'0 0.0
2014-Jul-14 02:25N 18°01' W 063°05'0 0.0
2014-Jul-14 01:14N 18°01' W 063°05'0 0.0
2014-Jul-14 00:22N 18°01' W 063°05'0 0.0
2014-Jul-13 23:30N 18°01' W 063°05'0 0.0
2014-Jul-13 22:20N 18°01' W 063°05'0 0.0
2014-Jul-13 21:29N 18°01' W 063°05'0 0.0
2014-Jul-13 20:33N 18°01' W 063°05'0 0.0
2014-Jul-13 19:27N 18°01' W 063°05'0 0.0
2014-Jul-13 18:30N 18°01' W 063°05'0 0.0
2014-Jul-13 17:29N 18°01' W 063°05'0 0.0
2014-Jul-13 16:31N 18°01' W 063°05'0 0.0
2014-Jul-13 15:32N 18°01' W 063°05'0 0.0
2014-Jul-13 14:22N 18°01' W 063°05'0 0.0
2014-Jul-13 13:26N 18°01' W 063°05'0 0.0
2014-Jul-13 12:27N 18°01' W 063°05'0 0.0
2014-Jul-13 11:22N 18°01' W 063°05'0 0.1
2014-Jul-13 10:30N 18°01' W 063°05'  

Dump ship's entire track history